Time;durP1;ratioP1;P1;durP2;ratioP2;P2;SDS_P1;SDS_P2;PMS_P1;PMS_P2;Temp;Humidity;BMP_temperature;BMP_pressure;BME280_temperature;BME280_humidity;BME280_pressure;Samples;Min_cycle;Max_cycle;Signal;HPM_P1;HPM_P2
2023/12/27 00:01:04;;;;;;;13.77;3.15;;;3.70;99.90;;;;;;5081303;28;20040;-68
2023/12/27 00:03:29;;;;;;;8.55;2.13;;;3.70;99.90;;;;;;5078137;28;20033;-67
2023/12/27 00:05:55;;;;;;;14.95;2.97;;;3.70;99.90;;;;;;5078017;28;20044;-67
2023/12/27 00:08:21;;;;;;;11.75;1.90;;;3.70;99.90;;;;;;5082178;28;20457;-68
2023/12/27 00:10:46;;;;;;;10.95;2.78;;;3.70;99.90;;;;;;5078052;28;20770;-68
2023/12/27 00:13:12;;;;;;;10.35;2.30;;;3.70;99.90;;;;;;5085949;28;20067;-69
2023/12/27 00:15:37;;;;;;;11.20;2.03;;;3.80;99.90;;;;;;5077437;28;20048;-68
2023/12/27 00:18:03;;;;;;;10.15;2.13;;;3.80;99.90;;;;;;5072528;28;20044;-69
2023/12/27 00:20:28;;;;;;;13.93;3.42;;;3.80;99.90;;;;;;5066598;28;20051;-68
2023/12/27 00:22:54;;;;;;;8.43;2.05;;;3.80;99.90;;;;;;5070188;28;20143;-68
2023/12/27 00:25:20;;;;;;;8.73;2.10;;;3.80;99.90;;;;;;5063908;28;20028;-68
2023/12/27 00:27:45;;;;;;;13.40;2.42;;;3.80;99.90;;;;;;5067668;28;20050;-68
2023/12/27 00:30:11;;;;;;;15.90;3.22;;;3.70;99.90;;;;;;5066524;28;20032;-69
2023/12/27 00:32:36;;;;;;;10.73;2.47;;;3.80;99.90;;;;;;5067285;28;20044;-69
2023/12/27 00:35:02;;;;;;;7.55;1.80;;;3.80;99.90;;;;;;5065809;28;20040;-69
2023/12/27 00:37:27;;;;;;;13.85;3.22;;;3.80;99.90;;;;;;5071986;28;20652;-68
2023/12/27 00:39:53;;;;;;;13.88;2.85;;;3.70;99.90;;;;;;5063922;28;20044;-69
2023/12/27 00:42:19;;;;;;;16.73;3.83;;;3.70;99.90;;;;;;5064566;28;20611;-69
2023/12/27 00:44:45;;;;;;;11.13;2.25;;;3.70;99.90;;;;;;5066231;28;20033;-69
2023/12/27 00:47:10;;;;;;;7.38;2.40;;;3.70;99.90;;;;;;5067573;28;20033;-69
2023/12/27 00:49:36;;;;;;;9.68;1.95;;;3.70;99.90;;;;;;5068721;28;20044;-69
2023/12/27 00:52:01;;;;;;;8.50;2.15;;;3.60;99.90;;;;;;5066431;28;20041;-69
2023/12/27 00:54:27;;;;;;;9.80;2.67;;;3.60;99.90;;;;;;5066029;28;20068;-69
2023/12/27 00:56:52;;;;;;;9.73;2.40;;;3.60;99.90;;;;;;5067856;28;20036;-70
2023/12/27 00:59:18;;;;;;;5.35;1.77;;;3.60;99.90;;;;;;5067264;28;20048;-69
2023/12/27 01:01:43;;;;;;;9.57;2.08;;;3.60;99.90;;;;;;5061734;28;20033;-69
2023/12/27 01:04:09;;;;;;;10.23;2.50;;;3.60;99.90;;;;;;5066934;28;20044;-69
2023/12/27 01:06:35;;;;;;;14.73;2.63;;;3.60;99.90;;;;;;5062686;28;20044;-69
2023/12/27 01:09:03;;;;;;;5.88;2.17;;;3.60;99.90;;;;;;5067794;28;20044;-69
2023/12/27 01:11:28;;;;;;;14.57;2.10;;;3.60;99.90;;;;;;5064259;28;20511;-69
2023/12/27 01:13:54;;;;;;;15.25;3.40;;;3.60;99.90;;;;;;5072181;28;20079;-69
2023/12/27 01:16:19;;;;;;;18.58;2.55;;;3.50;99.90;;;;;;5059937;28;20106;-69
2023/12/27 01:18:45;;;;;;;11.73;2.78;;;3.50;99.90;;;;;;5065252;28;20523;-69
2023/12/27 01:21:13;;;;;;;8.45;2.22;;;3.50;99.90;;;;;;5061962;28;20040;-68
2023/12/27 01:23:38;;;;;;;16.55;2.50;;;3.50;99.90;;;;;;5067732;28;20491;-70
2023/12/27 01:26:04;;;;;;;7.68;1.85;;;3.50;99.90;;;;;;5064892;28;20051;-69
2023/12/27 01:28:29;;;;;;;9.90;2.13;;;3.50;99.90;;;;;;5065283;28;20112;-69
2023/12/27 01:30:55;;;;;;;7.95;2.25;;;3.50;99.90;;;;;;5061723;28;20081;-70
2023/12/27 01:33:21;;;;;;;9.65;2.72;;;3.40;99.90;;;;;;5065093;28;20048;-68
2023/12/27 01:35:46;;;;;;;12.52;2.67;;;3.50;99.90;;;;;;5063375;28;20048;-71
2023/12/27 01:38:12;;;;;;;8.80;2.40;;;3.50;99.90;;;;;;5066581;28;20051;-68
2023/12/27 01:40:37;;;;;;;10.75;2.53;;;3.50;99.90;;;;;;5059113;28;20081;-68
2023/12/27 01:43:03;;;;;;;8.77;2.17;;;3.50;99.90;;;;;;5068683;28;20063;-68
2023/12/27 01:45:29;;;;;;;10.85;1.95;;;3.50;99.90;;;;;;5063123;28;20554;-69
2023/12/27 01:47:55;;;;;;;19.92;3.13;;;3.50;99.90;;;;;;5069765;28;20119;-68
2023/12/27 01:50:20;;;;;;;10.43;2.10;;;3.50;99.90;;;;;;5058850;28;20040;-68
2023/12/27 01:52:46;;;;;;;8.30;2.22;;;3.50;99.90;;;;;;5065353;28;20039;-69
2023/12/27 01:55:13;;;;;;;7.70;1.70;;;3.50;99.90;;;;;;5060305;28;20447;-69
2023/12/27 01:57:39;;;;;;;8.32;1.98;;;3.50;99.90;;;;;;5066810;28;20091;-68
2023/12/27 02:00:12;;;;;;;11.00;2.42;;;3.50;99.90;;;;;;5066566;28;20043;-68
2023/12/27 02:02:38;;;;;;;10.30;2.20;;;3.50;99.90;;;;;;5065862;28;20040;-68
2023/12/27 02:05:04;;;;;;;9.00;2.00;;;3.40;99.90;;;;;;5060414;28;20037;-68
2023/12/27 02:07:30;;;;;;;14.52;2.33;;;3.30;99.90;;;;;;5064982;28;20040;-69
2023/12/27 02:09:56;;;;;;;6.93;1.80;;;3.30;99.90;;;;;;5062095;28;20558;-68
2023/12/27 02:12:26;;;;;;;7.40;1.92;;;3.30;99.90;;;;;;5067732;28;20055;-69
2023/12/27 02:14:52;;;;;;;8.38;2.10;;;3.30;99.90;;;;;;5058308;28;20504;-69
2023/12/27 02:17:19;;;;;;;9.05;2.13;;;3.30;99.90;;;;;;5063273;28;20047;-69
2023/12/27 02:19:45;;;;;;;7.97;2.17;;;3.20;99.90;;;;;;5066411;28;20044;-69
2023/12/27 02:22:14;;;;;;;10.68;2.20;;;3.20;99.90;;;;;;5058123;28;20037;-67
2023/12/27 02:24:40;;;;;;;10.45;2.58;;;3.20;99.90;;;;;;5065851;28;20041;-69
2023/12/27 02:27:06;;;;;;;5.00;2.20;;;3.20;99.90;;;;;;5066926;28;20127;-69
2023/12/27 02:29:34;;;;;;;12.20;2.28;;;3.10;99.90;;;;;;5066457;28;20148;-69
2023/12/27 02:31:59;;;;;;;11.52;2.35;;;3.10;99.90;;;;;;5062571;28;20033;-73
2023/12/27 02:34:25;;;;;;;8.57;2.25;;;3.10;99.90;;;;;;5064727;28;20041;-70
2023/12/27 02:36:51;;;;;;;11.73;2.30;;;3.10;99.90;;;;;;5063905;28;20036;-70
2023/12/27 02:39:17;;;;;;;13.13;2.45;;;3.00;99.90;;;;;;5066833;28;20865;-69
2023/12/27 02:41:42;;;;;;;12.65;2.75;;;3.00;99.90;;;;;;5064127;28;20043;-69
2023/12/27 02:44:08;;;;;;;8.00;2.03;;;3.00;99.90;;;;;;5071418;28;20407;-69
2023/12/27 02:46:34;;;;;;;9.68;2.25;;;2.90;99.90;;;;;;5063274;28;20048;-68
2023/12/27 02:48:59;;;;;;;9.85;1.95;;;2.80;99.90;;;;;;5068902;28;20044;-69
2023/12/27 02:51:25;;;;;;;10.45;1.92;;;2.80;99.90;;;;;;5057506;28;20412;-69
2023/12/27 02:53:50;;;;;;;11.43;2.30;;;2.70;99.90;;;;;;5066991;28;20444;-69
2023/12/27 02:56:16;;;;;;;8.05;2.20;;;2.70;99.90;;;;;;5063891;28;20040;-69
2023/12/27 02:58:42;;;;;;;10.40;2.08;;;2.60;99.90;;;;;;5064989;28;20043;-69
2023/12/27 03:01:07;;;;;;;9.13;2.45;;;2.60;99.90;;;;;;5063555;27;20052;-69
2023/12/27 03:03:33;;;;;;;11.52;2.42;;;2.50;99.90;;;;;;5062844;28;21068;-68
2023/12/27 03:05:58;;;;;;;9.00;2.20;;;2.60;99.90;;;;;;5068127;28;20087;-69
2023/12/27 03:08:24;;;;;;;8.05;2.13;;;2.50;99.90;;;;;;5066694;28;20536;-68
2023/12/27 03:10:49;;;;;;;11.48;2.63;;;2.40;99.90;;;;;;5062128;28;20036;-69
2023/12/27 03:13:15;;;;;;;14.52;2.72;;;2.40;99.90;;;;;;5067091;28;20037;-69
2023/12/27 03:15:41;;;;;;;7.40;2.30;;;2.30;99.90;;;;;;5064524;28;20044;-69
2023/12/27 03:18:06;;;;;;;13.27;2.30;;;2.30;99.90;;;;;;5067944;28;20119;-69
2023/12/27 03:20:32;;;;;;;8.30;2.13;;;2.30;99.90;;;;;;5062166;28;20086;-71
2023/12/27 03:22:57;;;;;;;8.50;2.45;;;2.30;99.90;;;;;;5061782;28;20392;-68
2023/12/27 03:25:23;;;;;;;10.90;3.13;;;2.40;99.90;;;;;;5062372;28;20048;-70
2023/12/27 03:27:48;;;;;;;16.33;2.72;;;2.40;99.90;;;;;;5066818;28;20033;-68
2023/12/27 03:30:14;;;;;;;10.68;2.50;;;2.40;99.90;;;;;;5062595;28;20043;-70
2023/12/27 03:32:40;;;;;;;7.55;2.63;;;2.40;99.90;;;;;;5067369;28;20067;-68
2023/12/27 03:35:06;;;;;;;16.52;2.83;;;2.40;99.90;;;;;;5063763;28;20578;-69
2023/12/27 03:37:31;;;;;;;9.45;2.78;;;2.40;99.90;;;;;;5064274;28;20071;-69
2023/12/27 03:39:57;;;;;;;11.23;2.80;;;2.50;99.90;;;;;;5064916;28;20484;-69
2023/12/27 03:42:22;;;;;;;8.80;2.17;;;2.50;99.90;;;;;;5068740;28;20075;-69
2023/12/27 03:44:52;;;;;;;13.07;2.83;;;2.60;99.90;;;;;;5063937;28;20029;-70
2023/12/27 03:47:22;;;;;;;9.85;2.70;;;2.50;99.90;;;;;;5064365;28;20068;-69
2023/12/27 03:49:48;;;;;;;7.57;2.72;;;2.60;99.90;;;;;;5063721;28;20045;-69
2023/12/27 03:52:13;;;;;;;7.85;2.17;;;2.50;99.90;;;;;;5067072;28;20039;-68
2023/12/27 03:54:40;;;;;;;8.13;2.50;;;2.60;99.90;;;;;;5067090;28;20095;-68
2023/12/27 03:57:06;;;;;;;6.75;2.05;;;2.60;99.90;;;;;;5067550;28;20736;-69
2023/12/27 03:59:32;;;;;;;4.93;2.13;;;2.60;99.90;;;;;;5065956;28;20047;-72
2023/12/27 04:01:58;;;;;;;10.13;2.53;;;2.60;99.90;;;;;;5068452;28;20040;-69
2023/12/27 04:04:23;;;;;;;9.73;2.60;;;2.60;99.90;;;;;;5068312;28;20044;-71
2023/12/27 04:06:49;;;;;;;8.48;2.20;;;2.60;99.90;;;;;;5071087;28;20087;-69
2023/12/27 04:09:14;;;;;;;5.70;2.47;;;2.50;99.90;;;;;;5063945;28;20036;-69
2023/12/27 04:11:44;;;;;;;8.18;2.28;;;2.50;99.90;;;;;;5068730;28;20072;-68
2023/12/27 04:14:10;;;;;;;7.55;2.30;;;2.60;99.90;;;;;;5068423;28;20042;-69
2023/12/27 04:16:36;;;;;;;11.02;2.40;;;2.50;99.90;;;;;;5068563;28;20048;-69
2023/12/27 04:19:02;;;;;;;7.28;2.42;;;2.50;99.90;;;;;;5066942;28;20032;-69
2023/12/27 04:21:27;;;;;;;12.90;2.47;;;2.50;99.90;;;;;;5065382;28;20048;-70
2023/12/27 04:23:53;;;;;;;7.53;2.22;;;2.50;99.90;;;;;;5068687;28;20043;-67
2023/12/27 04:26:18;;;;;;;11.75;2.75;;;2.50;99.90;;;;;;5062215;28;20090;-68
2023/12/27 04:28:44;;;;;;;6.72;2.08;;;2.50;99.90;;;;;;5067410;28;20107;-69
2023/12/27 04:31:09;;;;;;;11.80;2.38;;;2.40;99.90;;;;;;5066325;28;20406;-70
2023/12/27 04:33:35;;;;;;;12.32;3.00;;;2.40;99.90;;;;;;5069283;28;20036;-69
2023/12/27 04:36:00;;;;;;;12.40;3.65;;;2.40;99.90;;;;;;5061774;28;20044;-68
2023/12/27 04:38:27;;;;;;;12.27;4.10;;;2.40;99.90;;;;;;5066290;28;20048;-70
2023/12/27 04:40:54;;;;;;;12.45;3.50;;;2.40;99.90;;;;;;5063207;28;20028;-70
2023/12/27 04:43:19;;;;;;;15.10;2.90;;;2.40;99.90;;;;;;5064068;28;20048;-68
2023/12/27 04:45:45;;;;;;;5.75;2.88;;;2.30;99.90;;;;;;5065324;28;20048;-68
2023/12/27 04:48:10;;;;;;;14.07;3.20;;;2.20;99.90;;;;;;5065594;28;20037;-69
2023/12/27 04:50:36;;;;;;;15.38;4.00;;;2.20;99.90;;;;;;5060394;28;20115;-69
2023/12/27 04:53:02;;;;;;;12.10;3.92;;;2.20;99.90;;;;;;5066439;28;20051;-69
2023/12/27 04:55:27;;;;;;;13.57;4.15;;;2.20;99.90;;;;;;5069897;28;20041;-69
2023/12/27 04:57:53;;;;;;;11.77;4.18;;;2.20;99.90;;;;;;5068176;28;20036;-69
2023/12/27 05:00:18;;;;;;;11.50;3.67;;;2.10;99.90;;;;;;5067891;28;20039;-68
2023/12/27 05:02:44;;;;;;;10.52;3.72;;;2.10;99.90;;;;;;5066449;28;20252;-68
2023/12/27 05:05:10;;;;;;;20.50;4.82;;;2.10;99.90;;;;;;5063174;28;20386;-69
2023/12/27 05:07:35;;;;;;;15.00;4.68;;;2.10;99.90;;;;;;5070946;28;20148;-68
2023/12/27 05:10:01;;;;;;;11.48;4.25;;;2.10;99.90;;;;;;5066359;28;20115;-68
2023/12/27 05:12:26;;;;;;;12.27;4.38;;;2.10;99.90;;;;;;5066716;28;20048;-68
2023/12/27 05:14:52;;;;;;;19.45;5.45;;;2.10;99.90;;;;;;5062359;28;20033;-70
2023/12/27 05:17:17;;;;;;;8.88;4.40;;;2.10;99.90;;;;;;5066734;28;20155;-69
2023/12/27 05:19:43;;;;;;;14.23;5.22;;;2.10;99.90;;;;;;5064716;28;20044;-68
2023/12/27 05:22:08;;;;;;;24.90;5.22;;;2.20;99.90;;;;;;5065213;28;20028;-68
2023/12/27 05:24:34;;;;;;;13.75;4.90;;;2.20;99.90;;;;;;5065486;28;20044;-69
2023/12/27 05:26:59;;;;;;;12.52;4.68;;;2.20;99.90;;;;;;5069418;28;20433;-70
2023/12/27 05:29:25;;;;;;;13.80;4.88;;;2.30;99.90;;;;;;5066086;28;20032;-67
2023/12/27 05:31:50;;;;;;;9.60;4.70;;;2.30;99.90;;;;;;5065817;28;20208;-68
2023/12/27 05:34:16;;;;;;;10.73;4.80;;;2.30;99.90;;;;;;5071577;28;20029;-69
2023/12/27 05:36:41;;;;;;;19.40;5.05;;;2.40;99.90;;;;;;5064683;28;20499;-69
2023/12/27 05:39:07;;;;;;;23.35;5.63;;;2.40;99.90;;;;;;5065896;28;20115;-69
2023/12/27 05:41:32;;;;;;;9.68;5.15;;;2.40;99.90;;;;;;5062630;28;20081;-71
2023/12/27 05:43:58;;;;;;;12.32;5.10;;;2.40;99.90;;;;;;5064164;28;20072;-70
2023/12/27 05:46:24;;;;;;;10.65;4.32;;;2.40;99.90;;;;;;5065287;28;20481;-69
2023/12/27 05:48:49;;;;;;;14.07;5.22;;;2.40;99.90;;;;;;5064598;28;20032;-68
2023/12/27 05:51:15;;;;;;;16.48;5.00;;;2.40;99.90;;;;;;5062267;28;20036;-70
2023/12/27 05:53:41;;;;;;;9.35;4.53;;;2.40;99.90;;;;;;5063526;28;20036;-69
2023/12/27 05:56:08;;;;;;;16.13;5.18;;;2.40;99.90;;;;;;5068180;28;20036;-69
2023/12/27 05:58:34;;;;;;;10.18;4.68;;;2.40;99.90;;;;;;5066334;28;20036;-71
2023/12/27 06:00:59;;;;;;;15.25;5.18;;;2.40;99.90;;;;;;5062475;28;20063;-72
2023/12/27 06:03:25;;;;;;;13.68;4.93;;;2.50;99.90;;;;;;5067005;28;20408;-69
2023/12/27 06:05:50;;;;;;;17.80;4.95;;;2.50;99.90;;;;;;5064920;28;20440;-69
2023/12/27 06:08:18;;;;;;;13.15;5.05;;;2.50;99.90;;;;;;5066969;28;20036;-68
2023/12/27 06:10:46;;;;;;;10.85;4.72;;;2.60;99.90;;;;;;5065275;28;20040;-69
2023/12/27 06:13:12;;;;;;;10.88;4.80;;;2.60;99.90;;;;;;5071560;28;20044;-70
2023/12/27 06:15:38;;;;;;;11.88;4.82;;;2.60;99.90;;;;;;5071652;28;20044;-69
2023/12/27 06:18:03;;;;;;;12.27;5.47;;;2.60;99.90;;;;;;5073461;28;20043;-69
2023/12/27 06:20:29;;;;;;;14.68;4.60;;;2.60;99.90;;;;;;5067347;28;20535;-69
2023/12/27 06:22:55;;;;;;;14.75;5.80;;;2.60;99.90;;;;;;5067923;28;20037;-69
2023/12/27 06:25:21;;;;;;;13.45;5.15;;;2.70;99.90;;;;;;5066187;28;20098;-69
2023/12/27 06:27:46;;;;;;;11.18;4.47;;;2.70;99.90;;;;;;5066619;28;20601;-68
2023/12/27 06:30:12;;;;;;;8.27;3.88;;;2.70;99.90;;;;;;5067095;28;20036;-73
2023/12/27 06:32:38;;;;;;;16.70;4.40;;;2.80;99.90;;;;;;5065838;28;20047;-72
2023/12/27 06:35:03;;;;;;;17.23;4.45;;;2.80;99.90;;;;;;5063330;28;20036;-70
2023/12/27 06:37:29;;;;;;;11.25;3.38;;;2.80;99.90;;;;;;5065706;28;20530;-70
2023/12/27 06:39:55;;;;;;;11.25;3.88;;;2.80;99.90;;;;;;5058946;28;20043;-69
2023/12/27 06:42:21;;;;;;;14.07;4.43;;;2.90;99.90;;;;;;5058707;28;20032;-69
2023/12/27 06:44:47;;;;;;;15.77;4.07;;;2.90;99.90;;;;;;5056208;28;20554;-69
2023/12/27 06:47:12;;;;;;;11.88;4.95;;;2.90;99.90;;;;;;5065347;28;20032;-68
2023/12/27 06:49:38;;;;;;;10.98;4.75;;;2.90;99.90;;;;;;5063684;28;20032;-68
2023/12/27 06:52:04;;;;;;;18.73;3.60;;;3.00;99.90;;;;;;5068326;28;20055;-68
2023/12/27 06:54:29;;;;;;;20.75;4.47;;;3.10;99.90;;;;;;5065115;28;20586;-68
2023/12/27 06:56:55;;;;;;;8.98;3.55;;;3.20;99.90;;;;;;5063948;28;20068;-68
2023/12/27 06:59:20;;;;;;;11.32;3.67;;;3.30;99.90;;;;;;5065023;28;20484;-69
2023/12/27 07:01:46;;;;;;;10.07;3.40;;;3.20;99.90;;;;;;5065248;28;20036;-69
2023/12/27 07:04:11;;;;;;;14.07;4.72;;;3.30;99.90;;;;;;5063886;28;20028;-69
2023/12/27 07:06:38;;;;;;;13.93;3.63;;;3.30;99.90;;;;;;5062450;28;20058;-70
2023/12/27 07:09:04;;;;;;;14.50;4.03;;;3.30;99.90;;;;;;5064224;28;20040;-68
2023/12/27 07:11:30;;;;;;;15.93;3.97;;;3.30;99.90;;;;;;5059578;28;20035;-68
2023/12/27 07:13:55;;;;;;;17.38;3.85;;;3.30;99.90;;;;;;5064806;28;20047;-68
2023/12/27 07:16:21;;;;;;;13.57;4.10;;;3.40;99.90;;;;;;5061552;28;20056;-69
2023/12/27 07:18:46;;;;;;;17.27;3.53;;;3.40;99.90;;;;;;5062443;28;20036;-68
2023/12/27 07:21:12;;;;;;;14.18;3.22;;;3.50;99.90;;;;;;5063809;28;20048;-66
2023/12/27 07:23:38;;;;;;;13.05;3.38;;;3.60;99.90;;;;;;5063863;28;20044;-67
2023/12/27 07:26:04;;;;;;;12.88;3.60;;;3.60;99.90;;;;;;5068303;28;20178;-68
2023/12/27 07:28:30;;;;;;;12.00;3.20;;;3.70;99.90;;;;;;5068085;28;20040;-68
2023/12/27 07:30:57;;;;;;;9.82;3.78;;;3.80;99.90;;;;;;5067020;27;20132;-69
2023/12/27 07:33:23;;;;;;;18.05;3.60;;;3.80;99.90;;;;;;5069986;28;20032;-69
2023/12/27 07:35:48;;;;;;;20.45;3.75;;;3.90;99.90;;;;;;5067706;28;20059;-66
2023/12/27 07:38:14;;;;;;;21.05;4.07;;;3.90;99.90;;;;;;5067631;28;20089;-70
2023/12/27 07:40:40;;;;;;;14.25;3.40;;;3.90;99.90;;;;;;5066076;28;20048;-70
2023/12/27 07:43:08;;;;;;;11.27;3.35;;;3.90;99.90;;;;;;5069818;28;20040;-67
2023/12/27 07:45:34;;;;;;;10.38;3.40;;;4.00;99.90;;;;;;5068350;28;20516;-67
2023/12/27 07:47:59;;;;;;;15.48;3.55;;;4.00;99.90;;;;;;5066782;28;20044;-67
2023/12/27 07:50:25;;;;;;;15.23;3.45;;;4.00;99.90;;;;;;5063570;28;20125;-67
2023/12/27 07:52:52;;;;;;;11.70;3.03;;;4.00;99.90;;;;;;5065795;28;20558;-66
2023/12/27 07:55:18;;;;;;;16.58;3.70;;;4.10;99.90;;;;;;5065414;28;20033;-67
2023/12/27 07:57:45;;;;;;;8.80;3.17;;;4.10;99.90;;;;;;5069634;28;20515;-67
2023/12/27 08:00:14;;;;;;;12.05;3.25;;;4.20;99.90;;;;;;5060235;28;20067;-67
2023/12/27 08:02:41;;;;;;;9.50;2.90;;;4.20;99.90;;;;;;5066503;28;20083;-66
2023/12/27 08:05:07;;;;;;;8.57;3.13;;;4.30;99.90;;;;;;5063230;28;20040;-67
2023/12/27 08:07:32;;;;;;;15.60;2.85;;;4.30;99.90;;;;;;5066418;28;20070;-67
2023/12/27 08:09:58;;;;;;;9.30;2.90;;;4.40;99.90;;;;;;5063998;28;20033;-66
2023/12/27 08:12:24;;;;;;;16.27;4.40;;;4.40;99.90;;;;;;5064744;28;20048;-65
2023/12/27 08:14:49;;;;;;;16.05;3.13;;;4.40;99.90;;;;;;5059766;28;20189;-68
2023/12/27 08:17:15;;;;;;;12.13;3.05;;;4.60;99.90;;;;;;5070112;28;20045;-68
2023/12/27 08:19:41;;;;;;;10.40;3.42;;;4.60;99.90;;;;;;5066109;28;20677;-68
2023/12/27 08:22:07;;;;;;;13.50;2.55;;;4.70;99.90;;;;;;5066134;28;20132;-67
2023/12/27 08:24:32;;;;;;;7.38;2.67;;;4.80;99.90;;;;;;5066486;28;20044;-70
2023/12/27 08:26:58;;;;;;;15.88;3.10;;;4.80;99.90;;;;;;5066115;28;20420;-69
2023/12/27 08:29:25;;;;;;;9.95;2.95;;;4.90;99.90;;;;;;5064638;28;20107;-66
2023/12/27 08:31:50;;;;;;;19.25;3.70;;;4.90;99.90;;;;;;5067111;28;20037;-67
2023/12/27 08:34:16;;;;;;;11.00;3.35;;;4.90;99.90;;;;;;5068958;28;20037;-67
2023/12/27 08:36:45;;;;;;;14.40;4.13;;;4.90;99.90;;;;;;5064972;28;20036;-66
2023/12/27 08:39:11;;;;;;;15.88;4.03;;;4.90;99.90;;;;;;5067944;28;20098;-69
2023/12/27 08:41:36;;;;;;;16.88;4.82;;;4.80;99.90;;;;;;5065309;28;20389;-70
2023/12/27 08:44:02;;;;;;;14.43;3.67;;;4.80;99.90;;;;;;5069055;28;20044;-67
2023/12/27 08:46:28;;;;;;;14.77;4.35;;;4.70;99.90;;;;;;5064965;28;20496;-68
2023/12/27 08:48:54;;;;;;;14.52;3.90;;;4.80;99.90;;;;;;5067495;28;20044;-66
2023/12/27 08:51:19;;;;;;;16.23;3.65;;;4.80;99.90;;;;;;5064322;28;20048;-69
2023/12/27 08:53:45;;;;;;;14.70;4.10;;;4.80;99.90;;;;;;5067310;28;20040;-69
2023/12/27 08:56:10;;;;;;;10.65;3.85;;;4.90;99.90;;;;;;5062345;28;20058;-66
2023/12/27 08:58:36;;;;;;;12.30;3.75;;;4.90;99.90;;;;;;5064699;28;20056;-70
2023/12/27 09:01:02;;;;;;;11.57;3.80;;;5.00;99.90;;;;;;5060549;28;20041;-67
2023/12/27 09:03:28;;;;;;;25.58;4.03;;;5.00;99.90;;;;;;5064880;28;20048;-66
2023/12/27 09:05:53;;;;;;;16.83;4.05;;;5.00;99.90;;;;;;5067621;28;20519;-68
2023/12/27 09:08:19;;;;;;;12.15;4.75;;;5.00;99.90;;;;;;5063502;28;20528;-67
2023/12/27 09:10:45;;;;;;;12.25;4.00;;;5.00;99.90;;;;;;5063293;28;20044;-68
2023/12/27 09:13:10;;;;;;;14.25;4.35;;;5.00;99.90;;;;;;5069644;28;20037;-68
2023/12/27 09:15:36;;;;;;;11.13;4.20;;;5.00;99.90;;;;;;5073463;28;20047;-67
2023/12/27 09:18:01;;;;;;;16.00;4.57;;;5.00;99.90;;;;;;5075677;28;20040;-66
2023/12/27 09:20:27;;;;;;;11.98;4.45;;;4.90;99.90;;;;;;5064026;28;20032;-66
2023/12/27 09:22:53;;;;;;;9.35;3.90;;;4.90;99.90;;;;;;5067629;28;20541;-67
2023/12/27 09:25:18;;;;;;;9.30;3.67;;;4.90;99.90;;;;;;5076100;28;20097;-68
2023/12/27 09:27:46;;;;;;;6.60;3.65;;;4.90;99.90;;;;;;5073180;28;20049;-67
2023/12/27 09:30:12;;;;;;;8.02;3.92;;;4.90;99.90;;;;;;5066704;27;20052;-66
2023/12/27 09:32:40;;;;;;;5.25;3.00;;;4.90;99.90;;;;;;5078822;28;20036;-67
2023/12/27 09:35:05;;;;;;;9.95;3.67;;;4.90;99.90;;;;;;5077852;28;20041;-67
2023/12/27 09:37:31;;;;;;;6.65;3.10;;;4.90;99.90;;;;;;5076239;28;20062;-68
2023/12/27 09:39:57;;;;;;;5.63;3.25;;;5.00;99.90;;;;;;5071259;28;20051;-67
2023/12/27 09:42:23;;;;;;;4.53;2.40;;;4.90;99.90;;;;;;5076831;28;20040;-69
2023/12/27 09:44:50;;;;;;;5.50;2.33;;;5.10;99.90;;;;;;5066703;28;20130;-66
2023/12/27 09:47:17;;;;;;;2.08;1.75;;;5.20;99.90;;;;;;5077932;28;20044;-68
2023/12/27 09:49:43;;;;;;;6.35;2.63;;;5.20;99.90;;;;;;5078215;28;20040;-66
2023/12/27 09:52:13;;;;;;;3.53;1.70;;;5.30;99.90;;;;;;5080879;28;20032;-68
2023/12/27 09:54:39;;;;;;;2.85;1.98;;;5.40;99.90;;;;;;5079375;28;20085;-67
2023/12/27 09:57:04;;;;;;;2.95;1.88;;;5.40;99.90;;;;;;5063928;28;20040;-67
2023/12/27 09:59:39;;;;;;;4.15;1.80;;;5.50;99.90;;;;;;5072035;28;20087;-67
2023/12/27 10:02:11;;;;;;;3.83;1.75;;;5.50;99.90;;;;;;5079068;27;20079;-67
2023/12/27 10:05:09;;;;;;;2.80;1.55;;;5.60;99.90;;;;;;5079761;28;20036;-67
2023/12/27 10:07:39;;;;;;;5.68;1.65;;;5.70;99.90;;;;;;5079234;28;20043;-69
2023/12/27 10:10:08;;;;;;;3.00;1.50;;;5.80;99.90;;;;;;5071749;28;20029;-66
2023/12/27 10:12:35;;;;;;;1.50;1.15;;;5.90;99.90;;;;;;5067169;28;20044;-66
2023/12/27 10:15:01;;;;;;;1.65;1.00;;;6.00;99.90;;;;;;5073385;28;20045;-68
2023/12/27 10:17:27;;;;;;;2.85;1.27;;;6.00;99.90;;;;;;5064605;28;20057;-67
2023/12/27 10:19:53;;;;;;;2.22;1.33;;;6.10;99.90;;;;;;5064719;28;20567;-67
2023/12/27 10:22:19;;;;;;;2.22;1.40;;;6.20;99.90;;;;;;5077566;28;20162;-67
2023/12/27 10:24:45;;;;;;;2.47;1.40;;;6.20;99.90;;;;;;5078646;28;20032;-68
2023/12/27 10:27:12;;;;;;;5.05;1.13;;;6.20;99.90;;;;;;5066227;28;20036;-69
2023/12/27 10:29:38;;;;;;;1.60;1.17;;;6.10;99.90;;;;;;5069761;28;20047;-68
2023/12/27 10:32:06;;;;;;;1.80;1.25;;;6.20;99.90;;;;;;5066980;27;20041;-68
2023/12/27 10:34:32;;;;;;;1.55;1.08;;;6.30;99.90;;;;;;5074992;28;20032;-68
2023/12/27 10:36:59;;;;;;;1.98;1.17;;;6.30;99.90;;;;;;5076273;28;20055;-67
2023/12/27 10:39:25;;;;;;;1.48;0.80;;;6.30;99.90;;;;;;5083084;28;20145;-67
2023/12/27 10:41:54;;;;;;;1.98;1.25;;;6.30;99.90;;;;;;5068715;28;20093;-67
2023/12/27 10:44:20;;;;;;;1.30;1.02;;;6.40;99.90;;;;;;5077862;28;20037;-67
2023/12/27 10:46:48;;;;;;;1.63;0.85;;;6.30;99.90;;;;;;5073181;28;20044;-67
2023/12/27 10:49:14;;;;;;;2.03;0.90;;;6.30;99.90;;;;;;5077133;28;20036;-67
2023/12/27 10:51:41;;;;;;;1.38;0.80;;;6.30;99.90;;;;;;5071510;28;20036;-67
2023/12/27 10:54:08;;;;;;;3.42;1.02;;;6.30;99.90;;;;;;5074104;28;20123;-67
2023/12/27 10:56:37;;;;;;;1.63;1.25;;;6.30;99.90;;;;;;5063216;28;20122;-67
2023/12/27 10:59:06;;;;;;;1.40;1.05;;;6.40;99.90;;;;;;5084703;28;20047;-67
2023/12/27 11:01:38;;;;;;;2.53;1.17;;;6.30;99.90;;;;;;5071661;27;20040;-67
2023/12/27 11:04:08;;;;;;;1.65;1.10;;;6.30;99.90;;;;;;5071964;28;20039;-68
2023/12/27 11:06:37;;;;;;;1.85;0.55;;;6.30;99.90;;;;;;5070055;28;20036;-67
2023/12/27 11:09:07;;;;;;;2.00;0.70;;;6.30;99.90;;;;;;5074563;28;20531;-66
2023/12/27 11:11:38;;;;;;;2.55;0.60;;;6.30;99.90;;;;;;5067188;28;20044;-66
2023/12/27 11:14:05;;;;;;;1.23;0.93;;;6.40;99.90;;;;;;5073903;28;20036;-66
2023/12/27 11:16:34;;;;;;;0.70;0.50;;;6.40;99.90;;;;;;5071664;28;20493;-67
2023/12/27 11:19:01;;;;;;;1.30;0.70;;;6.40;99.90;;;;;;5074814;28;20028;-67
2023/12/27 11:21:26;;;;;;;1.00;0.80;;;6.40;99.90;;;;;;5071324;28;20484;-67
2023/12/27 11:23:52;;;;;;;1.48;0.98;;;6.40;99.90;;;;;;5076599;28;20036;-69
2023/12/27 11:26:18;;;;;;;1.48;1.10;;;6.30;99.90;;;;;;5064773;28;20435;-68
2023/12/27 11:28:46;;;;;;;1.10;0.95;;;6.30;99.90;;;;;;5075795;28;20036;-69
2023/12/27 11:31:15;;;;;;;1.15;0.90;;;6.30;99.90;;;;;;5070121;28;20546;-68
2023/12/27 11:33:43;;;;;;;2.10;0.98;;;6.30;99.90;;;;;;5075202;28;20090;-67
2023/12/27 11:36:10;;;;;;;1.50;0.75;;;6.30;99.90;;;;;;5068140;28;20132;-68
2023/12/27 11:38:36;;;;;;;2.45;0.85;;;6.40;99.90;;;;;;5080333;28;20415;-67
2023/12/27 11:41:02;;;;;;;0.85;0.70;;;6.50;99.90;;;;;;5067466;28;20037;-68
2023/12/27 11:43:56;;;;;;;0.95;0.73;;;6.50;99.90;;;;;;5074347;28;20036;-67
2023/12/27 11:46:30;;;;;;;2.53;1.35;;;6.50;99.90;;;;;;5066033;28;20138;-68
2023/12/27 11:48:58;;;;;;;3.60;2.15;;;6.40;99.90;;;;;;5069060;28;20066;-68
2023/12/27 11:51:34;;;;;;;2.00;1.25;;;6.20;99.90;;;;;;5067890;28;20059;-68
2023/12/27 11:54:01;;;;;;;4.65;1.92;;;6.10;99.90;;;;;;5065895;28;20036;-68
2023/12/27 11:56:31;;;;;;;1.70;1.17;;;6.10;99.90;;;;;;5067247;28;20087;-68
2023/12/27 11:59:01;;;;;;;2.45;1.67;;;6.10;99.90;;;;;;5067857;28;20040;-69
2023/12/27 12:01:35;;;;;;;2.05;1.33;;;6.20;99.90;;;;;;5068512;27;20124;-68
2023/12/27 12:04:15;;;;;;;1.35;1.00;;;6.20;99.90;;;;;;5066026;28;20049;-68
2023/12/27 12:06:55;;;;;;;1.63;1.23;;;6.20;99.90;;;;;;5073060;28;20051;-68
2023/12/27 12:09:41;;;;;;;2.58;1.38;;;6.30;99.90;;;;;;5080550;28;20115;-67
2023/12/27 12:12:20;;;;;;;1.00;0.90;;;6.30;99.90;;;;;;5067591;28;20036;-67
2023/12/27 12:14:46;;;;;;;2.10;0.85;;;6.30;99.90;;;;;;5079199;28;20049;-68
2023/12/27 12:17:15;;;;;;;1.35;0.95;;;6.30;99.90;;;;;;5081615;28;20425;-67
2023/12/27 12:19:41;;;;;;;0.90;0.82;;;6.40;99.90;;;;;;5083346;28;21915;-68
2023/12/27 12:22:07;;;;;;;1.42;0.82;;;6.40;99.90;;;;;;5081719;28;20089;-69
2023/12/27 12:24:33;;;;;;;2.78;1.15;;;6.40;99.90;;;;;;5081854;28;20036;-68
2023/12/27 12:26:59;;;;;;;1.55;1.10;;;6.40;99.90;;;;;;5072405;28;20040;-68
2023/12/27 12:29:25;;;;;;;1.38;0.93;;;6.40;99.90;;;;;;5082637;28;20049;-68
2023/12/27 12:31:54;;;;;;;1.73;1.00;;;6.40;99.90;;;;;;5078156;28;20066;-67
2023/12/27 12:34:24;;;;;;;1.20;0.75;;;6.30;99.90;;;;;;5083195;28;20042;-69
2023/12/27 12:36:53;;;;;;;1.23;0.95;;;6.30;99.90;;;;;;5076809;28;20105;-68
2023/12/27 12:39:20;;;;;;;1.48;1.10;;;6.30;99.90;;;;;;5085446;28;20035;-67
2023/12/27 12:41:46;;;;;;;1.27;0.73;;;6.30;99.90;;;;;;5076215;28;20119;-67
2023/12/27 12:44:12;;;;;;;1.25;0.90;;;6.30;99.90;;;;;;5083409;28;20140;-68
2023/12/27 12:46:39;;;;;;;1.30;0.90;;;6.30;99.90;;;;;;5071458;28;20041;-66
2023/12/27 12:49:06;;;;;;;0.98;0.70;;;6.30;99.90;;;;;;5079676;28;20123;-67